Time;durP1;ratioP1;P1;durP2;ratioP2;P2;SDS_P1;SDS_P2;PMS_P1;PMS_P2;Temp;Humidity;BMP_temperature;BMP_pressure;BME280_temperature;BME280_humidity;BME280_pressure;Samples;Min_cycle;Max_cycle;Signal;HPM_P1;HPM_P2
2023/05/14 00:04:18;;;;;;;5.33;4.90;;;12.60;99.90;;;;;;10513622;28;20229;-71
2023/05/14 00:09:19;;;;;;;5.63;4.93;;;12.50;99.90;;;;;;10492446;28;20237;-71
2023/05/14 00:14:19;;;;;;;12.17;6.40;;;12.40;99.90;;;;;;10519324;28;20233;-72
2023/05/14 00:19:20;;;;;;;7.27;5.80;;;12.30;99.90;;;;;;10498172;28;20245;-70
2023/05/14 00:24:20;;;;;;;6.60;5.70;;;12.30;99.90;;;;;;10518776;28;20689;-71
2023/05/14 00:29:21;;;;;;;7.10;6.40;;;12.20;99.90;;;;;;10510334;28;20223;-71
2023/05/14 00:34:22;;;;;;;8.70;6.27;;;12.20;99.90;;;;;;10514281;28;20649;-71
2023/05/14 00:39:22;;;;;;;7.40;5.90;;;12.20;99.90;;;;;;10492477;28;20216;-72
2023/05/14 00:44:23;;;;;;;7.77;5.77;;;12.20;99.90;;;;;;10505936;28;20222;-70
2023/05/14 00:49:24;;;;;;;6.70;5.80;;;12.20;99.90;;;;;;10510420;28;20227;-71
2023/05/14 00:54:26;;;;;;;8.57;6.17;;;12.10;99.90;;;;;;10514655;28;20258;-72
2023/05/14 00:59:27;;;;;;;6.80;5.70;;;12.20;99.90;;;;;;10491720;28;20848;-72
2023/05/14 01:04:28;;;;;;;6.83;5.83;;;12.20;99.90;;;;;;10515889;28;20223;-71
2023/05/14 01:09:43;;;;;;;9.53;5.77;;;12.20;99.90;;;;;;10513812;28;20685;-71
2023/05/14 01:14:52;;;;;;;6.30;5.73;;;12.10;99.90;;;;;;10511350;28;20266;-72
2023/05/14 01:19:55;;;;;;;6.27;5.67;;;12.10;99.90;;;;;;10510084;28;20231;-71
2023/05/14 01:24:56;;;;;;;7.63;6.10;;;12.10;99.90;;;;;;10512212;28;20697;-71
2023/05/14 01:30:12;;;;;;;6.20;5.60;;;12.10;99.90;;;;;;10496264;28;20230;-71
2023/05/14 01:35:13;;;;;;;6.07;5.30;;;12.00;99.90;;;;;;10511161;28;20235;-71
2023/05/14 01:40:14;;;;;;;7.40;4.90;;;12.00;99.90;;;;;;10507025;28;20599;-71
2023/05/14 01:45:15;;;;;;;6.80;5.43;;;11.90;99.90;;;;;;10517777;28;20182;-71
2023/05/14 01:50:16;;;;;;;5.57;5.07;;;11.60;99.90;;;;;;10520771;28;20183;-70
2023/05/14 01:55:17;;;;;;;9.80;6.00;;;11.60;99.90;;;;;;10505567;28;20700;-71
2023/05/14 02:00:18;;;;;;;8.37;6.60;;;11.60;99.90;;;;;;10495797;28;20186;-71
2023/05/14 02:05:19;;;;;;;8.03;5.43;;;11.60;99.90;;;;;;10512679;28;20289;-71
2023/05/14 02:10:20;;;;;;;9.50;6.70;;;11.60;99.90;;;;;;10507835;28;20174;-72
2023/05/14 02:15:21;;;;;;;10.47;7.03;;;11.60;99.90;;;;;;10513764;28;20207;-71
2023/05/14 02:20:21;;;;;;;9.83;7.13;;;11.50;99.90;;;;;;10494310;28;20671;-71
2023/05/14 02:25:22;;;;;;;10.07;7.13;;;11.50;99.90;;;;;;10487922;28;20252;-71
2023/05/14 02:30:22;;;;;;;9.10;7.43;;;11.60;99.90;;;;;;10512635;28;20285;-71
2023/05/14 02:35:23;;;;;;;8.73;7.40;;;11.70;99.90;;;;;;10518678;28;20210;-71
2023/05/14 02:40:24;;;;;;;8.67;7.07;;;11.70;99.90;;;;;;10495790;28;20187;-70
2023/05/14 02:45:24;;;;;;;8.87;6.93;;;11.70;99.90;;;;;;10519290;28;20548;-71
2023/05/14 02:50:25;;;;;;;8.67;7.47;;;11.70;99.90;;;;;;10520898;28;20217;-72
2023/05/14 02:55:25;;;;;;;9.23;7.40;;;11.60;99.90;;;;;;10500472;28;20821;-71
2023/05/14 03:00:26;;;;;;;7.60;6.73;;;11.60;99.90;;;;;;10518426;28;20218;-73
2023/05/14 03:05:27;;;;;;;7.77;7.07;;;11.50;99.90;;;;;;10512095;28;20183;-71
2023/05/14 03:10:27;;;;;;;9.17;6.83;;;11.30;99.90;;;;;;10512400;28;20227;-71
2023/05/14 03:15:28;;;;;;;7.17;6.47;;;11.10;99.90;;;;;;10495987;28;20584;-73
2023/05/14 03:20:31;;;;;;;7.50;6.73;;;11.10;99.90;;;;;;10499755;28;20225;-71
2023/05/14 03:25:33;;;;;;;7.73;7.00;;;11.00;99.90;;;;;;10514293;28;20219;-71
2023/05/14 03:30:33;;;;;;;7.23;6.50;;;11.00;99.90;;;;;;10517241;28;20697;-71
2023/05/14 03:35:34;;;;;;;8.00;7.07;;;11.00;99.90;;;;;;10496800;28;20234;-71
2023/05/14 03:40:37;;;;;;;8.77;6.73;;;11.00;99.90;;;;;;10506203;28;20215;-71
2023/05/14 03:45:39;;;;;;;10.33;6.57;;;11.00;99.90;;;;;;10520887;28;20289;-71
2023/05/14 03:50:39;;;;;;;7.00;6.40;;;11.00;99.90;;;;;;10519236;28;20221;-71
2023/05/14 03:55:40;;;;;;;8.90;6.37;;;11.00;99.90;;;;;;10521138;28;20222;-73
2023/05/14 04:00:41;;;;;;;8.17;6.47;;;11.00;99.90;;;;;;10515159;28;20225;-72
2023/05/14 04:05:42;;;;;;;7.57;6.50;;;11.00;99.90;;;;;;10514283;28;20214;-71
2023/05/14 04:10:42;;;;;;;6.70;6.10;;;11.00;99.90;;;;;;10500029;28;20727;-72
2023/05/14 04:15:46;;;;;;;7.77;6.47;;;11.00;99.90;;;;;;10517684;28;20240;-71
2023/05/14 04:20:49;;;;;;;6.63;5.97;;;11.10;99.90;;;;;;10514178;28;20231;-71
2023/05/14 04:25:50;;;;;;;6.90;6.20;;;11.00;99.90;;;;;;10514809;28;20322;-72
2023/05/14 04:30:51;;;;;;;7.97;6.47;;;11.10;99.90;;;;;;10512787;28;20322;-71
2023/05/14 04:35:52;;;;;;;7.50;6.70;;;11.20;99.90;;;;;;10516197;28;20225;-70
2023/05/14 04:40:52;;;;;;;5.97;5.33;;;11.30;99.90;;;;;;10517919;28;20222;-70
2023/05/14 04:45:53;;;;;;;6.60;6.00;;;11.40;99.90;;;;;;10511611;28;20697;-70
2023/05/14 04:50:53;;;;;;;6.70;5.93;;;11.50;99.90;;;;;;10498553;28;20230;-71
2023/05/14 04:55:54;;;;;;;6.80;6.17;;;11.50;99.90;;;;;;10521939;28;20292;-70
2023/05/14 05:00:55;;;;;;;5.80;5.30;;;11.60;99.90;;;;;;10507589;28;20287;-71
2023/05/14 05:05:55;;;;;;;10.33;5.90;;;11.70;99.90;;;;;;10510364;28;20215;-72
2023/05/14 05:10:56;;;;;;;9.87;7.07;;;11.80;99.90;;;;;;10494834;28;20684;-70
2023/05/14 05:15:56;;;;;;;11.67;6.70;;;11.90;99.90;;;;;;10492235;28;20684;-71
2023/05/14 05:20:57;;;;;;;14.40;8.20;;;12.00;99.90;;;;;;10507793;28;20215;-71
2023/05/14 05:25:58;;;;;;;9.47;7.00;;;12.10;99.90;;;;;;10512755;28;20214;-72
2023/05/14 05:30:58;;;;;;;7.40;6.70;;;12.30;99.90;;;;;;10496826;28;20226;-71
2023/05/14 05:35:59;;;;;;;10.13;7.43;;;12.40;99.90;;;;;;10513148;28;20238;-71
2023/05/14 05:40:59;;;;;;;14.43;8.37;;;12.50;99.90;;;;;;10505423;28;20786;-70
2023/05/14 05:46:00;;;;;;;11.87;7.73;;;12.80;99.90;;;;;;10495806;28;21436;-71
2023/05/14 05:51:01;;;;;;;14.77;7.37;;;13.00;99.90;;;;;;10519097;28;20214;-71
2023/05/14 05:56:01;;;;;;;9.37;6.50;;;13.30;99.90;;;;;;10508827;28;20256;-72
2023/05/14 06:01:02;;;;;;;14.60;6.67;;;13.60;99.90;;;;;;10494525;28;20219;-71
2023/05/14 06:06:02;;;;;;;15.30;7.13;;;14.00;99.90;;;;;;10489760;28;20222;-71
2023/05/14 06:11:03;;;;;;;14.27;7.10;;;14.40;99.90;;;;;;10512933;28;20310;-71
2023/05/14 06:16:07;;;;;;;12.43;6.87;;;15.20;99.90;;;;;;10515415;28;20323;-72
2023/05/14 06:21:07;;;;;;;17.50;7.60;;;16.90;99.90;;;;;;10512986;28;20218;-71
2023/05/14 06:26:08;;;;;;;13.57;6.00;;;20.20;99.90;;;;;;10507340;28;20249;-70
2023/05/14 06:31:12;;;;;;;6.33;4.50;;;21.30;99.90;;;;;;10519625;28;21040;-71
2023/05/14 06:36:13;;;;;;;7.83;4.73;;;22.00;99.90;;;;;;10513004;28;20224;-72
2023/05/14 06:41:13;;;;;;;4.20;2.80;;;22.60;99.20;;;;;;10516213;28;20220;-70
2023/05/14 06:46:14;;;;;;;3.00;2.50;;;23.10;97.10;;;;;;10505149;28;20230;-72
2023/05/14 06:51:15;;;;;;;2.90;2.70;;;23.70;92.50;;;;;;10510073;28;20213;-72
2023/05/14 06:56:16;;;;;;;4.40;2.60;;;23.30;90.40;;;;;;10504235;28;20290;-71
2023/05/14 07:01:16;;;;;;;2.80;2.50;;;24.30;87.60;;;;;;10486793;28;20238;-71
2023/05/14 07:06:17;;;;;;;2.70;2.50;;;24.30;82.30;;;;;;10505033;28;20221;-71
2023/05/14 07:11:17;;;;;;;3.40;2.87;;;23.90;83.20;;;;;;10495051;28;20256;-71
2023/05/14 07:16:18;;;;;;;2.60;2.40;;;24.10;81.70;;;;;;10503677;28;20233;-72
2023/05/14 07:21:19;;;;;;;2.97;2.67;;;24.80;79.50;;;;;;10490401;28;20219;-71
2023/05/14 07:26:20;;;;;;;3.23;2.60;;;25.70;75.10;;;;;;10520072;28;20229;-71
2023/05/14 07:31:20;;;;;;;2.87;2.63;;;25.90;72.10;;;;;;10494591;28;20227;-72
2023/05/14 07:36:21;;;;;;;2.73;2.53;;;25.60;71.50;;;;;;10524381;28;20230;-72
2023/05/14 07:41:21;;;;;;;3.70;2.90;;;25.50;70.10;;;;;;10518691;28;20211;-71
2023/05/14 07:46:22;;;;;;;3.00;2.73;;;26.10;69.30;;;;;;10511140;28;20345;-71
2023/05/14 07:51:23;;;;;;;4.20;2.87;;;25.90;66.40;;;;;;10524828;28;20222;-72
2023/05/14 07:56:24;;;;;;;3.97;3.07;;;28.00;62.90;;;;;;10518919;28;20226;-72
2023/05/14 08:01:25;;;;;;;3.37;2.93;;;30.10;56.70;;;;;;10519209;28;20225;-71
2023/05/14 08:06:27;;;;;;;2.57;2.37;;;29.50;55.90;;;;;;10498475;28;20232;-72
2023/05/14 08:11:27;;;;;;;3.33;2.77;;;31.20;52.40;;;;;;10510111;28;20242;-71
2023/05/14 08:16:28;;;;;;;2.67;2.47;;;30.00;52.70;;;;;;10497191;28;20233;-72
2023/05/14 08:21:28;;;;;;;3.77;2.70;;;30.20;53.10;;;;;;10516018;28;20229;-72
2023/05/14 08:26:29;;;;;;;2.80;2.60;;;30.30;51.00;;;;;;10514438;28;20776;-72
2023/05/14 08:31:29;;;;;;;3.20;2.30;;;30.70;50.60;;;;;;10508535;28;20778;-73
2023/05/14 08:36:37;;;;;;;4.37;2.70;;;31.80;47.90;;;;;;10517371;28;20226;-72
2023/05/14 08:41:39;;;;;;;3.47;2.77;;;32.30;46.50;;;;;;10508224;28;20241;-72
2023/05/14 08:46:40;;;;;;;2.77;2.47;;;32.10;46.20;;;;;;10520478;28;20626;-72
2023/05/14 08:51:42;;;;;;;4.10;3.30;;;30.10;46.40;;;;;;10512013;28;20222;-72
2023/05/14 08:56:47;;;;;;;3.10;2.90;;;29.30;49.30;;;;;;10517916;28;20926;-73
2023/05/14 09:01:50;;;;;;;3.00;2.37;;;29.80;50.10;;;;;;10493133;28;20334;-73
2023/05/14 09:06:53;;;;;;;2.60;2.40;;;32.20;46.10;;;;;;10511734;28;20218;-73
2023/05/14 09:11:53;;;;;;;3.33;3.03;;;30.50;46.20;;;;;;10510617;28;20223;-72
2023/05/14 09:16:54;;;;;;;4.00;3.30;;;28.00;50.00;;;;;;10494886;28;20749;-71
2023/05/14 09:21:58;;;;;;;3.53;3.23;;;25.40;55.20;;;;;;10491422;28;20219;-71
2023/05/14 09:26:58;;;;;;;3.10;2.90;;;23.80;59.60;;;;;;10512961;28;20223;-71
2023/05/14 09:32:06;;;;;;;3.47;3.17;;;23.80;60.30;;;;;;10515533;28;20217;-71
2023/05/14 09:37:08;;;;;;;3.40;3.10;;;23.30;61.20;;;;;;10507281;28;20227;-70
2023/05/14 09:42:08;;;;;;;3.40;2.87;;;22.20;65.60;;;;;;10494783;28;20272;-73
2023/05/14 09:47:09;;;;;;;3.10;2.83;;;21.70;69.60;;;;;;10514421;28;20263;-71
2023/05/14 09:52:10;;;;;;;4.17;2.80;;;21.70;68.00;;;;;;10504568;28;20230;-72
2023/05/14 09:57:11;;;;;;;3.43;2.80;;;21.60;68.90;;;;;;10509032;28;20231;-71
2023/05/14 10:02:21;;;;;;;2.90;2.60;;;21.40;71.60;;;;;;10495417;28;20299;-72
2023/05/14 10:07:25;;;;;;;2.80;2.60;;;21.60;72.10;;;;;;10507107;28;20222;-71
2023/05/14 10:12:31;;;;;;;2.90;2.63;;;21.50;71.90;;;;;;10513196;28;20295;-72
2023/05/14 10:17:34;;;;;;;3.30;2.60;;;21.40;72.60;;;;;;10513746;28;20241;-71
2023/05/14 10:22:35;;;;;;;2.97;2.77;;;20.80;73.40;;;;;;10508348;28;20236;-71
2023/05/14 10:27:36;;;;;;;3.80;2.70;;;20.70;73.10;;;;;;10510301;28;20735;-71
2023/05/14 10:32:36;;;;;;;3.23;2.90;;;20.80;74.20;;;;;;10507356;28;20249;-72
2023/05/14 10:37:37;;;;;;;3.13;2.40;;;21.00;73.20;;;;;;10508608;28;20231;-71
2023/05/14 10:42:42;;;;;;;3.43;2.70;;;21.60;72.10;;;;;;10507496;28;20310;-71
2023/05/14 10:47:45;;;;;;;2.63;2.03;;;22.40;68.20;;;;;;10508054;28;20228;-71
2023/05/14 10:52:46;;;;;;;2.50;2.37;;;22.60;66.80;;;;;;10507479;28;20211;-71
2023/05/14 10:57:47;;;;;;;4.13;2.60;;;22.40;66.10;;;;;;10513741;28;20631;-71
2023/05/14 11:02:48;;;;;;;3.70;2.50;;;22.30;66.80;;;;;;10516977;28;20222;-71
2023/05/14 11:07:56;;;;;;;3.00;2.70;;;22.40;65.90;;;;;;10493521;28;20228;-71
2023/05/14 11:12:57;;;;;;;2.67;2.47;;;22.20;67.30;;;;;;10513658;28;20231;-71
2023/05/14 11:17:58;;;;;;;2.53;2.33;;;21.80;69.60;;;;;;10520002;28;20314;-71
2023/05/14 11:22:59;;;;;;;4.10;2.67;;;21.60;70.80;;;;;;10520125;28;20306;-71
2023/05/14 11:27:59;;;;;;;3.00;2.70;;;21.50;70.60;;;;;;10517110;28;20223;-72
2023/05/14 11:33:00;;;;;;;3.07;2.80;;;21.50;70.40;;;;;;10512993;28;20215;-71
2023/05/14 11:38:01;;;;;;;2.97;2.67;;;21.50;71.00;;;;;;10517677;28;20234;-72
2023/05/14 11:43:04;;;;;;;3.07;2.50;;;21.70;69.60;;;;;;10495038;28;20212;-72
2023/05/14 11:48:13;;;;;;;2.73;2.47;;;22.10;70.30;;;;;;10524220;28;20637;-71
2023/05/14 11:53:40;;;;;;;3.03;2.50;;;22.40;66.30;;;;;;10523045;28;20210;-71
2023/05/14 11:58:55;;;;;;;3.40;2.30;;;22.30;66.30;;;;;;10515613;28;20310;-71
2023/05/14 12:03:56;;;;;;;2.50;2.27;;;22.20;67.50;;;;;;10512181;28;20581;-72
2023/05/14 12:08:56;;;;;;;2.63;2.30;;;22.50;67.60;;;;;;10514224;28;20206;-71
2023/05/14 12:13:58;;;;;;;2.37;2.17;;;22.90;64.80;;;;;;10512000;28;20221;-72
2023/05/14 12:19:00;;;;;;;2.00;1.90;;;22.80;63.60;;;;;;10514820;28;20294;-72
2023/05/14 12:24:04;;;;;;;2.47;2.10;;;22.70;64.60;;;;;;10516683;28;20215;-71
2023/05/14 12:29:05;;;;;;;2.83;1.97;;;22.60;63.90;;;;;;10509737;28;20433;-72
2023/05/14 12:34:06;;;;;;;2.00;1.90;;;23.30;62.50;;;;;;10523437;28;20214;-72
2023/05/14 12:39:07;;;;;;;2.20;2.00;;;23.90;60.80;;;;;;10516248;28;20343;-72
2023/05/14 12:44:08;;;;;;;2.00;1.90;;;23.10;61.60;;;;;;10515295;28;20689;-72
2023/05/14 12:49:08;;;;;;;2.37;2.20;;;22.70;63.70;;;;;;10497306;28;20210;-71
2023/05/14 12:54:10;;;;;;;2.10;2.00;;;22.40;64.60;;;;;;10509457;28;20600;-71
2023/05/14 12:59:10;;;;;;;3.57;2.27;;;22.30;64.60;;;;;;10497396;28;20641;-71
2023/05/14 13:04:11;;;;;;;2.73;2.10;;;22.40;66.00;;;;;;10503814;28;20295;-72
2023/05/14 13:09:11;;;;;;;2.07;1.97;;;22.20;64.80;;;;;;10515303;28;20676;-71
2023/05/14 13:14:12;;;;;;;2.80;2.30;;;21.90;66.10;;;;;;10508062;28;20318;-71
2023/05/14 13:19:12;;;;;;;3.13;2.10;;;21.90;66.10;;;;;;10495607;28;20239;-71
2023/05/14 13:24:14;;;;;;;2.80;2.13;;;21.90;67.80;;;;;;10497109;28;20598;-71
2023/05/14 13:29:14;;;;;;;2.20;2.00;;;21.70;66.70;;;;;;10514586;28;20226;-70
2023/05/14 13:34:15;;;;;;;3.87;2.03;;;21.80;66.20;;;;;;10506397;28;20231;-70
2023/05/14 13:39:15;;;;;;;1.97;1.67;;;21.50;65.90;;;;;;10513517;28;20578;-71
2023/05/14 13:44:16;;;;;;;2.80;2.10;;;21.70;67.10;;;;;;10506181;28;20212;-71
2023/05/14 13:49:20;;;;;;;2.20;2.00;;;21.80;65.40;;;;;;10522167;28;20317;-70
2023/05/14 13:54:21;;;;;;;2.23;2.03;;;21.50;64.80;;;;;;10495130;28;20227;-71
2023/05/14 13:59:22;;;;;;;2.30;1.93;;;21.70;63.60;;;;;;10513032;28;20218;-71
2023/05/14 14:04:27;;;;;;;2.60;2.03;;;22.10;63.30;;;;;;10514142;28;20227;-72
2023/05/14 14:09:28;;;;;;;2.90;2.00;;;22.40;63.10;;;;;;10489052;28;20223;-72
2023/05/14 14:14:28;;;;;;;2.30;2.10;;;22.30;65.30;;;;;;10493009;28;20230;-72
2023/05/14 14:19:29;;;;;;;2.97;2.40;;;21.80;68.70;;;;;;10507068;28;20238;-71
2023/05/14 14:24:29;;;;;;;2.20;2.00;;;20.90;71.20;;;;;;10493978;28;20218;-70
2023/05/14 14:29:30;;;;;;;2.60;2.00;;;20.80;73.00;;;;;;10516740;28;20283;-71
2023/05/14 14:34:31;;;;;;;2.33;2.13;;;21.10;71.80;;;;;;10524452;28;20226;-71
2023/05/14 14:39:31;;;;;;;2.23;2.13;;;21.00;71.10;;;;;;10527058;28;20742;-71
2023/05/14 14:44:32;;;;;;;2.23;2.03;;;20.90;70.90;;;;;;10520293;28;20765;-71
2023/05/14 14:49:32;;;;;;;2.07;1.97;;;21.10;70.40;;;;;;10515372;28;20298;-72
2023/05/14 14:54:36;;;;;;;2.07;1.90;;;20.80;68.80;;;;;;10520321;28;20238;-72
2023/05/14 14:59:36;;;;;;;2.00;1.90;;;20.80;69.00;;;;;;10518660;28;20243;-72
2023/05/14 15:04:37;;;;;;;1.80;1.70;;;20.80;68.30;;;;;;10524100;28;20249;-71
2023/05/14 15:09:38;;;;;;;2.00;1.60;;;20.80;67.70;;;;;;10517067;28;20215;-72
2023/05/14 15:14:39;;;;;;;3.80;2.17;;;20.60;68.20;;;;;;10515180;28;20230;-71
2023/05/14 15:19:39;;;;;;;2.03;1.93;;;20.40;69.40;;;;;;10516789;28;20300;-71
2023/05/14 15:24:40;;;;;;;2.57;2.07;;;20.40;70.40;;;;;;10501632;28;20313;-72
2023/05/14 15:29:40;;;;;;;1.90;1.80;;;20.60;69.80;;;;;;10513336;28;20312;-71
2023/05/14 15:34:41;;;;;;;1.93;1.83;;;20.50;69.40;;;;;;10511260;28;20257;-71
2023/05/14 15:39:41;;;;;;;2.50;2.20;;;20.60;71.30;;;;;;10497812;28;20213;-71
2023/05/14 15:44:42;;;;;;;1.97;1.87;;;20.60;69.80;;;;;;10520196;28;20206;-70
2023/05/14 15:49:42;;;;;;;1.87;1.77;;;20.60;68.90;;;;;;10522671;28;20222;-72
2023/05/14 15:54:46;;;;;;;2.30;2.10;;;20.60;68.00;;;;;;10518761;28;20313;-70
2023/05/14 15:59:46;;;;;;;1.93;1.77;;;20.60;69.70;;;;;;10514373;28;20219;-71
2023/05/14 16:04:48;;;;;;;1.87;1.77;;;20.70;68.60;;;;;;10500990;28;20725;-71
2023/05/14 16:09:48;;;;;;;2.03;1.83;;;20.60;68.60;;;;;;10496300;28;20218;-71
2023/05/14 16:14:49;;;;;;;2.77;1.97;;;20.60;69.10;;;;;;10518555;28;20223;-72
2023/05/14 16:19:50;;;;;;;3.17;1.63;;;20.60;68.40;;;;;;10512931;28;20329;-71
2023/05/14 16:24:50;;;;;;;2.10;1.90;;;20.50;68.20;;;;;;10515983;28;20249;-71
2023/05/14 16:29:51;;;;;;;2.67;1.90;;;20.40;69.10;;;;;;10517420;28;20653;-71
2023/05/14 16:34:51;;;;;;;3.13;1.93;;;20.30;68.70;;;;;;10520302;28;20211;-71
2023/05/14 16:39:52;;;;;;;3.03;1.77;;;20.30;69.30;;;;;;10512724;28;20220;-71
2023/05/14 16:44:52;;;;;;;1.63;1.30;;;20.50;72.70;;;;;;10511618;28;20218;-72
2023/05/14 16:49:53;;;;;;;2.60;1.43;;;20.30;73.30;;;;;;10511153;28;20252;-72
2023/05/14 16:54:53;;;;;;;2.57;1.57;;;20.10;73.00;;;;;;10512562;28;20957;-72
2023/05/14 16:59:54;;;;;;;1.40;1.30;;;20.10;74.20;;;;;;10488508;28;20290;-70
2023/05/14 17:04:55;;;;;;;2.60;1.40;;;19.70;73.20;;;;;;10489403;28;20838;-72
2023/05/14 17:09:56;;;;;;;2.80;1.30;;;19.40;74.50;;;;;;10512743;28;20244;-72
2023/05/14 17:14:57;;;;;;;1.40;1.30;;;19.30;75.40;;;;;;10509640;28;20313;-71
2023/05/14 17:19:58;;;;;;;1.47;1.17;;;19.20;75.30;;;;;;10493883;28;20222;-72
2023/05/14 17:24:58;;;;;;;2.37;1.30;;;19.10;75.70;;;;;;10508981;28;20302;-71
2023/05/14 17:30:00;;;;;;;1.10;1.00;;;19.00;76.30;;;;;;10516828;28;20234;-71
2023/05/14 17:35:00;;;;;;;1.37;1.27;;;18.80;77.50;;;;;;10505415;28;20308;-71
2023/05/14 17:40:04;;;;;;;2.10;1.30;;;18.70;78.40;;;;;;10513714;28;20218;-71
2023/05/14 17:45:06;;;;;;;1.03;0.93;;;18.60;79.30;;;;;;10502998;28;20318;-71
2023/05/14 17:50:07;;;;;;;1.67;1.30;;;18.60;80.50;;;;;;10507021;28;20276;-71
2023/05/14 17:55:08;;;;;;;2.90;1.20;;;18.60;81.20;;;;;;10519670;28;20214;-71
2023/05/14 18:00:14;;;;;;;2.33;1.57;;;18.60;81.50;;;;;;10506791;28;20183;-72
2023/05/14 18:05:15;;;;;;;2.20;1.57;;;18.60;82.10;;;;;;10513561;28;20261;-71
2023/05/14 18:10:16;;;;;;;1.50;1.40;;;18.60;81.90;;;;;;10487319;28;20672;-70
2023/05/14 18:15:18;;;;;;;2.43;1.60;;;18.60;84.00;;;;;;10513341;28;20198;-71
2023/05/14 18:20:19;;;;;;;1.60;1.50;;;18.60;83.10;;;;;;10505333;28;20178;-70
2023/05/14 18:25:20;;;;;;;1.83;1.60;;;18.50;83.70;;;;;;10512609;28;20185;-71
2023/05/14 18:30:20;;;;;;;5.70;1.97;;;18.50;84.60;;;;;;10505395;28;20202;-71
2023/05/14 18:35:21;;;;;;;1.70;1.60;;;18.50;84.50;;;;;;10519706;28;20206;-71
2023/05/14 18:40:21;;;;;;;3.63;1.70;;;18.30;84.90;;;;;;10504519;28;20256;-72
2023/05/14 18:45:22;;;;;;;3.07;1.37;;;18.20;85.60;;;;;;10499186;28;20311;-72
2023/05/14 18:50:23;;;;;;;1.40;1.30;;;17.90;82.00;;;;;;10518751;28;20177;-71
2023/05/14 18:55:23;;;;;;;1.90;1.33;;;17.70;82.70;;;;;;10504765;28;20541;-71
2023/05/14 19:00:24;;;;;;;2.00;1.10;;;17.60;83.70;;;;;;10510871;28;20222;-71
2023/05/14 19:05:28;;;;;;;3.90;1.60;;;17.40;85.20;;;;;;10505430;28;20256;-72
2023/05/14 19:10:33;;;;;;;1.47;1.30;;;17.20;86.50;;;;;;10510783;28;20233;-72
2023/05/14 19:15:34;;;;;;;2.03;1.67;;;17.20;87.80;;;;;;10506419;28;20228;-71
2023/05/14 19:20:34;;;;;;;1.93;1.47;;;17.10;88.20;;;;;;10517397;28;20220;-72
2023/05/14 19:25:35;;;;;;;2.00;1.70;;;17.10;89.00;;;;;;10496327;28;20218;-71
2023/05/14 19:30:35;;;;;;;3.00;1.40;;;17.10;89.10;;;;;;10519747;28;20230;-71
2023/05/14 19:35:36;;;;;;;1.70;1.60;;;17.20;89.30;;;;;;10516966;28;20229;-70
2023/05/14 19:40:37;;;;;;;2.17;1.97;;;17.10;89.80;;;;;;10523455;28;20310;-71
2023/05/14 19:45:38;;;;;;;2.50;1.80;;;17.10;90.20;;;;;;10516332;28;20671;-70
2023/05/14 19:50:40;;;;;;;2.80;1.50;;;17.00;90.70;;;;;;10495273;28;20217;-71
2023/05/14 19:55:40;;;;;;;1.57;1.30;;;16.90;91.10;;;;;;10510866;28;20315;-70
2023/05/14 20:00:41;;;;;;;2.73;1.80;;;16.70;91.50;;;;;;10495505;28;20307;-71
2023/05/14 20:05:45;;;;;;;2.00;1.80;;;16.40;92.00;;;;;;10515143;28;20216;-71
2023/05/14 20:10:46;;;;;;;2.10;1.90;;;16.20;92.80;;;;;;10495591;28;20254;-71
2023/05/14 20:15:47;;;;;;;2.53;1.70;;;16.00;93.60;;;;;;10513742;28;20593;-71
2023/05/14 20:20:47;;;;;;;2.00;1.90;;;15.90;94.10;;;;;;10495766;28;20223;-71
2023/05/14 20:25:48;;;;;;;2.07;1.87;;;15.90;94.60;;;;;;10513284;28;20349;-71
2023/05/14 20:30:49;;;;;;;2.70;2.33;;;15.80;95.30;;;;;;10494670;28;20383;-71
2023/05/14 20:35:49;;;;;;;2.40;2.20;;;15.70;95.90;;;;;;10498499;28;20703;-71
2023/05/14 20:40:50;;;;;;;2.70;2.50;;;15.50;96.90;;;;;;10513210;28;20227;-71
2023/05/14 20:45:51;;;;;;;2.30;2.10;;;15.40;98.10;;;;;;10516825;28;20223;-72
2023/05/14 20:50:52;;;;;;;2.97;2.30;;;15.30;99.00;;;;;;10510058;28;20330;-70
2023/05/14 20:55:52;;;;;;;2.20;2.00;;;15.20;99.90;;;;;;10494092;28;20596;-71
2023/05/14 21:00:53;;;;;;;4.07;2.10;;;15.20;99.90;;;;;;10489338;28;20245;-71
2023/05/14 21:05:55;;;;;;;2.17;1.97;;;15.10;99.90;;;;;;10513213;28;20282;-71
2023/05/14 21:10:56;;;;;;;2.20;2.00;;;15.10;99.90;;;;;;10511112;28;20317;-71
2023/05/14 21:15:58;;;;;;;3.13;2.53;;;15.00;99.90;;;;;;10512759;28;20218;-71
2023/05/14 21:21:02;;;;;;;4.50;2.60;;;14.90;99.90;;;;;;10510179;28;20250;-72
2023/05/14 21:26:03;;;;;;;2.60;2.10;;;14.90;99.90;;;;;;10494657;28;20210;-71
2023/05/14 21:31:03;;;;;;;2.73;2.30;;;14.80;99.90;;;;;;10490168;28;20765;-71
2023/05/14 21:36:04;;;;;;;2.53;2.33;;;14.70;99.90;;;;;;10510645;28;20845;-70
2023/05/14 21:41:05;;;;;;;5.27;2.93;;;14.70;99.90;;;;;;10513719;28;20561;-70
2023/05/14 21:46:06;;;;;;;2.63;2.30;;;14.70;99.90;;;;;;10514735;28;20225;-72
2023/05/14 21:51:07;;;;;;;3.47;2.40;;;14.50;99.90;;;;;;10488840;28;20698;-72
2023/05/14 21:56:07;;;;;;;4.40;2.77;;;14.40;99.90;;;;;;10512861;28;20226;-71
2023/05/14 22:01:10;;;;;;;3.70;2.60;;;14.30;99.90;;;;;;10493285;28;20727;-70
2023/05/14 22:06:10;;;;;;;3.20;2.90;;;14.30;99.90;;;;;;10505386;28;20233;-71
2023/05/14 22:11:11;;;;;;;3.97;2.70;;;14.20;99.90;;;;;;10513110;28;20229;-72
2023/05/14 22:16:11;;;;;;;3.27;2.90;;;14.20;99.90;;;;;;10488246;28;20876;-71
2023/05/14 22:21:12;;;;;;;3.13;2.83;;;14.10;99.90;;;;;;10513934;28;20225;-71
2023/05/14 22:26:13;;;;;;;4.80;2.80;;;14.10;99.90;;;;;;10494632;28;20911;-71
2023/05/14 22:31:13;;;;;;;3.03;2.83;;;13.90;99.90;;;;;;10506559;28;20233;-71
2023/05/14 22:36:14;;;;;;;3.47;3.17;;;13.80;99.90;;;;;;10513416;28;20226;-71
2023/05/14 22:41:16;;;;;;;4.10;3.20;;;13.80;99.90;;;;;;10496310;28;20731;-71
2023/05/14 22:46:16;;;;;;;4.20;3.20;;;13.80;99.90;;;;;;10505771;28;20336;-71
2023/05/14 22:51:17;;;;;;;7.03;3.27;;;13.80;99.90;;;;;;10524890;28;20358;-71
2023/05/14 22:56:19;;;;;;;3.93;2.77;;;13.80;99.90;;;;;;10521529;28;20222;-71
2023/05/14 23:01:19;;;;;;;3.70;2.67;;;13.70;99.90;;;;;;10506387;28;20214;-70
2023/05/14 23:06:20;;;;;;;3.33;2.97;;;13.60;99.90;;;;;;10512838;28;20242;-71
2023/05/14 23:11:21;;;;;;;8.03;3.53;;;13.60;99.90;;;;;;10512961;28;20783;-71
2023/05/14 23:16:21;;;;;;;4.63;3.07;;;13.50;99.90;;;;;;10519602;28;20230;-71
2023/05/14 23:21:22;;;;;;;3.40;2.97;;;13.30;99.90;;;;;;10493209;28;20323;-70
2023/05/14 23:26:23;;;;;;;4.90;3.60;;;13.20;99.90;;;;;;10493950;28;20298;-70
2023/05/14 23:31:23;;;;;;;3.17;2.97;;;13.10;99.90;;;;;;10519085;28;20917;-71
2023/05/14 23:36:24;;;;;;;3.30;3.00;;;13.10;99.90;;;;;;10519057;28;20261;-71
2023/05/14 23:41:25;;;;;;;3.53;3.20;;;13.10;99.90;;;;;;10512678;28;20570;-71
2023/05/14 23:46:27;;;;;;;4.00;3.27;;;13.00;99.90;;;;;;10525265;28;20748;-71
2023/05/14 23:51:27;;;;;;;3.47;3.17;;;13.00;99.90;;;;;;10510899;28;20229;-71
2023/05/14 23:56:28;;;;;;;6.17;3.30;;;13.10;99.90;;;;;;10498719;28;20308;-71
